Time;durP1;ratioP1;P1;durP2;ratioP2;P2;SDS_P1;SDS_P2;PMS_P1;PMS_P2;Temp;Humidity;BMP_temperature;BMP_pressure;BME280_temperature;BME280_humidity;BME280_pressure;Samples;Min_cycle;Max_cycle;Signal;HPM_P1;HPM_P2
2022/03/04 00:00:28;;;;;;;10.50;6.18;;;10.70;43.10;;;;;;6151169;23;20017;-78
2022/03/04 00:02:54;;;;;;;10.93;6.45;;;10.70;43.00;;;;;;6150244;23;20010;-78
2022/03/04 00:05:20;;;;;;;10.32;6.22;;;10.60;42.90;;;;;;6151267;23;20361;-78
2022/03/04 00:07:46;;;;;;;8.68;6.03;;;10.60;42.90;;;;;;6151176;23;20024;-79
2022/03/04 00:10:12;;;;;;;12.30;5.97;;;10.60;42.90;;;;;;6151239;23;20018;-77
2022/03/04 00:12:38;;;;;;;9.30;5.93;;;10.60;42.90;;;;;;6150634;23;20014;-78
2022/03/04 00:15:05;;;;;;;8.85;6.10;;;10.60;42.90;;;;;;6174978;23;20088;-78
2022/03/04 00:17:31;;;;;;;8.10;5.53;;;10.60;42.90;;;;;;6174185;23;20029;-77
2022/03/04 00:19:57;;;;;;;10.32;5.47;;;10.60;42.80;;;;;;6149699;23;20013;-77
2022/03/04 00:22:23;;;;;;;11.18;5.70;;;10.60;42.80;;;;;;6150716;23;20465;-77
2022/03/04 00:24:48;;;;;;;8.88;5.30;;;10.60;42.80;;;;;;6151427;23;20357;-78
2022/03/04 00:27:15;;;;;;;8.43;5.15;;;10.50;42.80;;;;;;6152483;23;20021;-76
2022/03/04 00:29:41;;;;;;;9.95;5.38;;;10.50;42.80;;;;;;6152116;23;20010;-77
2022/03/04 00:32:09;;;;;;;8.93;4.78;;;10.50;42.80;;;;;;6151548;23;20156;-77
2022/03/04 00:34:34;;;;;;;7.88;4.78;;;10.50;42.80;;;;;;6153988;23;20018;-77
2022/03/04 00:37:00;;;;;;;7.25;4.38;;;10.50;42.80;;;;;;6152913;23;20071;-77
2022/03/04 00:39:26;;;;;;;7.65;4.72;;;10.40;42.80;;;;;;6151999;23;20018;-77
2022/03/04 00:41:52;;;;;;;7.47;4.53;;;10.40;42.80;;;;;;6151354;23;20063;-76
2022/03/04 00:44:18;;;;;;;7.63;4.60;;;10.40;42.70;;;;;;6151002;23;20022;-77
2022/03/04 00:46:44;;;;;;;6.95;4.20;;;10.40;42.80;;;;;;6152671;23;20021;-76
2022/03/04 00:49:10;;;;;;;8.45;4.78;;;10.40;42.90;;;;;;6150935;23;20017;-76
2022/03/04 00:51:36;;;;;;;6.88;4.07;;;10.40;42.90;;;;;;6151305;23;20017;-77
2022/03/04 00:54:02;;;;;;;6.30;4.47;;;10.40;42.90;;;;;;6151476;23;20009;-77
2022/03/04 00:56:28;;;;;;;8.20;4.32;;;10.40;42.90;;;;;;6151876;23;20105;-76
2022/03/04 00:58:54;;;;;;;7.55;4.25;;;10.40;42.90;;;;;;6175154;23;20057;-76
2022/03/04 01:01:20;;;;;;;5.40;4.10;;;10.40;42.90;;;;;;6150075;23;20037;-76
2022/03/04 01:03:46;;;;;;;7.88;4.32;;;10.40;43.00;;;;;;6125807;23;20021;-77
2022/03/04 01:06:12;;;;;;;7.75;4.47;;;10.40;43.00;;;;;;6150258;23;20493;-78
2022/03/04 01:08:38;;;;;;;6.40;4.43;;;10.30;43.00;;;;;;6152971;23;20013;-76
2022/03/04 01:11:03;;;;;;;5.93;4.05;;;10.30;43.00;;;;;;6150922;23;20017;-76
2022/03/04 01:13:29;;;;;;;8.55;4.13;;;10.30;43.00;;;;;;6152300;23;20104;-78
2022/03/04 01:15:56;;;;;;;6.97;4.20;;;10.30;43.00;;;;;;6153013;23;20528;-76
2022/03/04 01:18:22;;;;;;;7.50;4.25;;;10.30;43.10;;;;;;6152246;23;20468;-76
2022/03/04 01:20:48;;;;;;;6.63;3.65;;;10.30;43.10;;;;;;6127206;23;20013;-78
2022/03/04 01:23:14;;;;;;;6.80;4.32;;;10.30;43.10;;;;;;6151085;23;20017;-79
2022/03/04 01:25:41;;;;;;;6.55;4.53;;;10.30;43.10;;;;;;6152423;23;20022;-78
2022/03/04 01:28:07;;;;;;;6.30;4.22;;;10.30;43.00;;;;;;6152878;23;20014;-78
2022/03/04 01:30:33;;;;;;;7.95;4.10;;;10.30;43.00;;;;;;6127064;23;20089;-78
2022/03/04 01:32:59;;;;;;;6.55;4.18;;;10.20;43.00;;;;;;6153441;23;20107;-78
2022/03/04 01:35:25;;;;;;;5.13;3.97;;;10.20;43.00;;;;;;6152866;23;20386;-78
2022/03/04 01:37:51;;;;;;;6.60;4.25;;;10.20;43.00;;;;;;6153673;23;20025;-77
2022/03/04 01:40:17;;;;;;;7.43;4.30;;;10.20;43.00;;;;;;6153650;23;20030;-76
2022/03/04 01:42:43;;;;;;;6.68;4.22;;;10.20;43.00;;;;;;6152049;23;20064;-78
2022/03/04 01:45:10;;;;;;;8.85;4.43;;;10.20;43.10;;;;;;6152717;23;20010;-77
2022/03/04 01:47:39;;;;;;;8.18;4.05;;;10.20;43.00;;;;;;6151455;23;20053;-77
2022/03/04 01:50:06;;;;;;;8.48;4.47;;;10.10;43.00;;;;;;6150852;23;20028;-77
2022/03/04 01:52:32;;;;;;;7.25;4.07;;;10.20;43.00;;;;;;6152005;23;20025;-78
2022/03/04 01:54:58;;;;;;;6.35;4.35;;;10.10;43.00;;;;;;6151774;23;20032;-77
2022/03/04 01:57:24;;;;;;;6.75;4.13;;;10.10;43.10;;;;;;6149392;23;20040;-78
2022/03/04 01:59:50;;;;;;;6.75;4.45;;;10.10;43.00;;;;;;6152401;23;20357;-79
2022/03/04 02:02:16;;;;;;;10.68;4.60;;;10.10;43.00;;;;;;6150533;23;20093;-77
2022/03/04 02:04:43;;;;;;;6.47;3.97;;;10.10;43.10;;;;;;6151870;23;20020;-77
2022/03/04 02:07:09;;;;;;;7.72;4.70;;;10.10;43.10;;;;;;6151834;23;20533;-78
2022/03/04 02:09:35;;;;;;;8.95;4.35;;;10.10;43.10;;;;;;6151685;23;20365;-77
2022/03/04 02:12:02;;;;;;;9.15;4.68;;;10.00;43.10;;;;;;6150899;23;20009;-77
2022/03/04 02:14:27;;;;;;;7.50;3.92;;;10.10;43.20;;;;;;6152140;23;20024;-77
2022/03/04 02:16:54;;;;;;;6.90;4.50;;;10.00;43.10;;;;;;6150635;23;20041;-78
2022/03/04 02:19:21;;;;;;;9.65;4.43;;;10.00;43.10;;;;;;6152072;23;20017;-77
2022/03/04 02:21:58;;;;;;;7.80;4.82;;;10.00;43.10;;;;;;6152257;23;20017;-78
2022/03/04 02:24:26;;;;;;;7.95;4.70;;;10.00;43.00;;;;;;6151996;23;20029;-77
2022/03/04 02:26:53;;;;;;;8.32;4.55;;;9.90;42.90;;;;;;6152843;23;20036;-78
2022/03/04 02:29:21;;;;;;;9.00;4.75;;;9.90;42.90;;;;;;6152096;23;20052;-76
2022/03/04 02:31:47;;;;;;;7.13;4.88;;;9.90;43.00;;;;;;6152428;23;20539;-77
2022/03/04 02:34:13;;;;;;;8.50;5.35;;;9.90;43.00;;;;;;6125666;23;20524;-79
2022/03/04 02:36:40;;;;;;;6.35;4.78;;;9.90;43.10;;;;;;6152327;23;20032;-78
2022/03/04 02:39:06;;;;;;;8.77;5.30;;;9.90;43.10;;;;;;6152425;23;20021;-77
2022/03/04 02:41:35;;;;;;;9.27;5.65;;;9.90;43.10;;;;;;6152561;23;20041;-76
2022/03/04 02:44:13;;;;;;;9.57;5.22;;;9.80;43.10;;;;;;6151102;23;20022;-76
2022/03/04 02:46:39;;;;;;;7.10;5.05;;;9.80;43.20;;;;;;6151163;23;20023;-78
2022/03/04 02:49:06;;;;;;;8.77;5.88;;;9.80;43.20;;;;;;6152031;23;20018;-78
2022/03/04 02:51:33;;;;;;;7.63;4.95;;;9.80;43.40;;;;;;6151744;23;20024;-76
2022/03/04 02:53:59;;;;;;;10.13;5.85;;;9.80;43.40;;;;;;6150788;23;20020;-78
2022/03/04 02:56:25;;;;;;;7.85;5.50;;;9.80;43.40;;;;;;6151380;23;20100;-77
2022/03/04 02:58:51;;;;;;;8.70;5.72;;;9.80;43.50;;;;;;6151622;23;20473;-76
2022/03/04 03:01:18;;;;;;;9.35;5.88;;;9.80;43.50;;;;;;6149823;23;20018;-76
2022/03/04 03:03:44;;;;;;;9.73;5.50;;;9.80;43.60;;;;;;6125345;23;20030;-77
2022/03/04 03:06:10;;;;;;;10.60;6.10;;;9.70;43.60;;;;;;6149981;23;20017;-77
2022/03/04 03:08:36;;;;;;;10.23;5.93;;;9.70;43.60;;;;;;6126067;23;20032;-76
2022/03/04 03:11:02;;;;;;;9.55;5.93;;;9.70;43.50;;;;;;6149397;23;20021;-78
2022/03/04 03:13:28;;;;;;;9.00;5.75;;;9.70;43.60;;;;;;6150489;23;20022;-78
2022/03/04 03:15:55;;;;;;;8.90;5.70;;;9.70;43.60;;;;;;6149470;23;20033;-78
2022/03/04 03:18:20;;;;;;;10.82;6.38;;;9.70;43.60;;;;;;6125014;23;20413;-77
2022/03/04 03:20:46;;;;;;;11.05;6.03;;;9.70;43.60;;;;;;6125842;23;20014;-78
2022/03/04 03:23:12;;;;;;;9.80;6.10;;;9.60;43.60;;;;;;6151635;23;20013;-76
2022/03/04 03:25:38;;;;;;;9.30;5.93;;;9.70;43.70;;;;;;6150101;23;20048;-79
2022/03/04 03:28:04;;;;;;;9.93;6.22;;;9.60;43.60;;;;;;6149861;23;20037;-80
2022/03/04 03:30:31;;;;;;;9.57;6.60;;;9.60;43.70;;;;;;6150086;23;20036;-81
2022/03/04 03:32:57;;;;;;;10.70;6.38;;;9.60;43.90;;;;;;6153129;23;20036;-82
2022/03/04 03:35:23;;;;;;;11.73;6.15;;;9.60;44.10;;;;;;6151001;23;20017;-81
2022/03/04 03:37:49;;;;;;;11.40;6.50;;;9.60;44.30;;;;;;6150858;23;20096;-82
2022/03/04 03:40:16;;;;;;;8.90;6.55;;;9.50;44.40;;;;;;6150824;23;20060;-82
2022/03/04 03:42:42;;;;;;;9.35;6.15;;;9.60;44.50;;;;;;6125647;23;20084;-80
2022/03/04 03:45:12;;;;;;;10.68;6.50;;;9.50;44.60;;;;;;6126813;23;20068;-81
2022/03/04 03:47:40;;;;;;;9.52;6.40;;;9.50;44.60;;;;;;6151358;23;20033;-80
2022/03/04 03:50:14;;;;;;;10.38;6.35;;;9.50;44.70;;;;;;6126582;23;20060;-81
2022/03/04 03:52:40;;;;;;;8.50;6.07;;;9.50;44.90;;;;;;6152519;23;20017;-81
2022/03/04 03:55:08;;;;;;;10.27;6.55;;;9.50;45.10;;;;;;6126119;23;20049;-82
2022/03/04 03:57:34;;;;;;;11.05;6.50;;;9.50;45.30;;;;;;6152044;23;20092;-81
2022/03/04 04:00:00;;;;;;;12.75;6.78;;;9.50;45.50;;;;;;6151555;23;20476;-81
2022/03/04 04:02:26;;;;;;;11.80;6.90;;;9.50;45.70;;;;;;6154039;23;20030;-81
2022/03/04 04:04:52;;;;;;;8.93;6.35;;;9.50;45.70;;;;;;6127925;23;20021;-81
2022/03/04 04:07:18;;;;;;;9.50;6.97;;;9.50;45.90;;;;;;6127330;23;20049;-81
2022/03/04 04:09:44;;;;;;;9.35;6.07;;;9.50;45.90;;;;;;6151851;23;20018;-81
2022/03/04 04:12:10;;;;;;;9.57;6.85;;;9.50;46.00;;;;;;6127228;23;20104;-82
2022/03/04 04:14:36;;;;;;;9.85;6.75;;;9.50;46.00;;;;;;6154524;23;20120;-82
2022/03/04 04:17:02;;;;;;;11.73;7.05;;;9.40;46.00;;;;;;6152120;23;20539;-81
2022/03/04 04:19:28;;;;;;;12.35;7.55;;;9.50;46.20;;;;;;6153913;23;20337;-82
2022/03/04 04:21:54;;;;;;;13.15;6.95;;;9.40;46.10;;;;;;6152385;23;20017;-81
2022/03/04 04:24:20;;;;;;;13.55;7.20;;;9.40;46.10;;;;;;6152358;23;20096;-80
2022/03/04 04:26:46;;;;;;;10.07;6.68;;;9.40;46.20;;;;;;6127499;23;20033;-78
2022/03/04 04:29:13;;;;;;;9.75;6.85;;;9.40;46.30;;;;;;6153041;23;20022;-82
2022/03/04 04:31:40;;;;;;;10.57;6.47;;;9.40;46.40;;;;;;6151877;23;20041;-81
2022/03/04 04:34:06;;;;;;;12.18;7.70;;;9.40;46.40;;;;;;6151365;23;20052;-78
2022/03/04 04:36:32;;;;;;;12.30;7.82;;;9.40;46.50;;;;;;6151224;23;20018;-78
2022/03/04 04:38:58;;;;;;;10.20;6.90;;;9.40;46.50;;;;;;6152686;23;20469;-77
2022/03/04 04:41:24;;;;;;;10.45;7.50;;;9.40;46.50;;;;;;6175507;23;20028;-80
2022/03/04 04:43:50;;;;;;;13.57;8.55;;;9.40;46.60;;;;;;6175981;23;20018;-85
2022/03/04 04:46:17;;;;;;;11.18;7.32;;;9.40;46.70;;;;;;6153202;23;20021;-90
2022/03/04 04:48:43;;;;;;;13.38;8.00;;;9.40;46.60;;;;;;6134559;23;20021;-86
2022/03/04 04:51:09;;;;;;;12.25;7.82;;;9.40;46.40;;;;;;6161085;23;20017;-81
2022/03/04 04:53:35;;;;;;;12.43;7.90;;;9.40;46.20;;;;;;6129392;23;20393;-84
2022/03/04 04:56:01;;;;;;;12.18;7.78;;;9.40;46.10;;;;;;6152822;23;20025;-81
2022/03/04 04:58:27;;;;;;;12.32;8.70;;;9.40;45.90;;;;;;6151511;23;20136;-82
2022/03/04 05:00:53;;;;;;;14.82;9.13;;;9.40;45.90;;;;;;6101874;23;20051;-82
2022/03/04 05:03:24;;;;;;;14.32;8.48;;;9.30;45.70;;;;;;6126573;23;20013;-82
2022/03/04 05:05:51;;;;;;;15.70;8.40;;;9.30;45.60;;;;;;6127259;23;20052;-86
2022/03/04 05:08:18;;;;;;;11.10;8.10;;;9.30;45.60;;;;;;6151794;23;20026;-81
2022/03/04 05:10:44;;;;;;;10.68;8.18;;;9.30;45.70;;;;;;6151859;23;20076;-82
2022/03/04 05:13:11;;;;;;;11.32;8.02;;;9.30;45.70;;;;;;6127265;23;20018;-83
2022/03/04 05:15:38;;;;;;;12.02;8.40;;;9.30;46.20;;;;;;6153908;23;20009;-82
2022/03/04 05:18:04;;;;;;;12.20;7.78;;;9.30;45.60;;;;;;6128794;23;20017;-81
2022/03/04 05:20:30;;;;;;;10.65;7.80;;;9.30;45.60;;;;;;6152813;23;20156;-86
2022/03/04 05:22:56;;;;;;;13.10;8.13;;;9.30;45.60;;;;;;6104587;23;20017;-86
2022/03/04 05:25:22;;;;;;;10.70;7.80;;;9.20;45.50;;;;;;6129162;23;20033;-81
2022/03/04 05:27:48;;;;;;;11.35;8.32;;;9.20;45.50;;;;;;6103349;23;20069;-77
2022/03/04 05:30:14;;;;;;;12.88;8.20;;;9.30;45.50;;;;;;6152924;23;20049;-77
2022/03/04 05:32:40;;;;;;;13.35;8.40;;;9.30;45.60;;;;;;6153274;23;20044;-77
2022/03/04 05:35:07;;;;;;;12.02;8.40;;;9.20;45.60;;;;;;6151302;23;20044;-77
2022/03/04 05:37:33;;;;;;;12.82;8.27;;;9.20;45.70;;;;;;6152250;23;20025;-77
2022/03/04 05:39:59;;;;;;;12.82;8.07;;;9.20;45.70;;;;;;6151472;23;20028;-79
2022/03/04 05:42:26;;;;;;;10.35;7.97;;;9.20;45.70;;;;;;6152200;23;20059;-77
2022/03/04 05:44:52;;;;;;;16.02;8.55;;;9.20;45.70;;;;;;6152217;23;20013;-77
2022/03/04 05:47:18;;;;;;;10.63;7.88;;;9.20;45.70;;;;;;6125886;23;20025;-77
2022/03/04 05:49:44;;;;;;;12.23;7.85;;;9.20;45.70;;;;;;6149830;23;20373;-78
2022/03/04 05:52:10;;;;;;;12.88;7.68;;;9.20;45.70;;;;;;6175098;23;20017;-76
2022/03/04 05:54:36;;;;;;;12.30;8.23;;;9.20;45.80;;;;;;6153868;23;20014;-80
2022/03/04 05:57:03;;;;;;;23.20;14.30;;;9.20;46.40;;;;;;6151893;23;20009;-79
2022/03/04 05:59:29;;;;;;;19.92;12.32;;;9.10;47.20;;;;;;6151761;23;20045;-79
2022/03/04 06:01:55;;;;;;;19.08;11.98;;;8.90;47.00;;;;;;6151604;23;20021;-79
2022/03/04 06:04:21;;;;;;;16.55;11.05;;;8.80;47.20;;;;;;6151622;23;20033;-79
2022/03/04 06:06:47;;;;;;;16.05;10.35;;;8.70;48.60;;;;;;6150455;23;20017;-79
2022/03/04 06:09:13;;;;;;;15.75;9.98;;;8.60;50.20;;;;;;6151635;23;20005;-80
2022/03/04 06:11:40;;;;;;;15.73;9.25;;;8.50;51.00;;;;;;6150510;23;20368;-80
2022/03/04 06:14:06;;;;;;;15.98;9.93;;;8.40;51.30;;;;;;6174790;23;20072;-80
2022/03/04 06:16:33;;;;;;;15.20;9.10;;;8.40;52.10;;;;;;6174848;23;20029;-78
2022/03/04 06:18:58;;;;;;;14.70;9.30;;;8.30;52.40;;;;;;6151726;23;20341;-79
2022/03/04 06:21:25;;;;;;;14.85;9.43;;;8.30;52.60;;;;;;6151541;23;20018;-79
2022/03/04 06:23:51;;;;;;;13.23;8.48;;;8.20;52.60;;;;;;6150076;23;20460;-78
2022/03/04 06:26:17;;;;;;;18.83;9.20;;;8.20;52.50;;;;;;6151150;23;20032;-79
2022/03/04 06:28:43;;;;;;;11.80;8.43;;;8.20;52.50;;;;;;6149832;23;20361;-79
2022/03/04 06:31:09;;;;;;;17.73;9.55;;;8.20;52.10;;;;;;6151618;23;20025;-80
2022/03/04 06:33:37;;;;;;;12.15;8.10;;;8.20;52.30;;;;;;6150383;23;20017;-79
2022/03/04 06:36:12;;;;;;;14.88;8.63;;;8.10;52.80;;;;;;6101570;23;20045;-79
2022/03/04 06:38:41;;;;;;;16.75;8.50;;;8.10;52.60;;;;;;6148956;23;20072;-79
2022/03/04 06:41:14;;;;;;;11.52;8.32;;;8.10;52.30;;;;;;6124962;23;20540;-79
2022/03/04 06:43:41;;;;;;;11.88;8.18;;;8.10;51.80;;;;;;6100850;23;20029;-80
2022/03/04 06:46:08;;;;;;;13.70;8.18;;;8.10;52.00;;;;;;6149246;23;20029;-79
2022/03/04 06:48:34;;;;;;;13.55;8.27;;;8.00;52.20;;;;;;6151532;23;20013;-78
2022/03/04 06:51:00;;;;;;;12.20;8.00;;;8.00;52.00;;;;;;6174816;23;20012;-80
2022/03/04 06:53:27;;;;;;;14.50;7.80;;;8.00;51.80;;;;;;6151679;23;20022;-79
2022/03/04 06:55:53;;;;;;;11.77;7.78;;;8.00;51.50;;;;;;6150157;23;20342;-79
2022/03/04 06:58:19;;;;;;;12.82;7.68;;;7.90;51.90;;;;;;6149754;23;20033;-77
2022/03/04 07:00:47;;;;;;;12.30;7.97;;;8.00;51.90;;;;;;6150284;23;20021;-79
2022/03/04 07:03:13;;;;;;;12.20;7.90;;;8.00;52.00;;;;;;6151236;23;20013;-79
2022/03/04 07:05:39;;;;;;;11.10;8.13;;;7.90;51.80;;;;;;6150391;23;20021;-79
2022/03/04 07:08:07;;;;;;;10.32;7.63;;;8.00;51.70;;;;;;6150335;23;20029;-79
2022/03/04 07:10:34;;;;;;;13.73;7.90;;;7.90;51.40;;;;;;6151042;23;20073;-77
2022/03/04 07:13:01;;;;;;;11.02;7.32;;;7.90;51.10;;;;;;6151312;23;20113;-79
2022/03/04 07:15:27;;;;;;;9.05;7.30;;;7.90;50.70;;;;;;6149492;23;20449;-78
2022/03/04 07:17:53;;;;;;;10.98;7.30;;;7.90;50.50;;;;;;6150125;23;20013;-79
2022/03/04 07:20:18;;;;;;;12.55;7.60;;;7.90;51.00;;;;;;6149408;23;20079;-79
2022/03/04 07:22:44;;;;;;;14.00;8.40;;;7.90;50.80;;;;;;6149303;23;20084;-78
2022/03/04 07:25:12;;;;;;;13.90;8.00;;;7.90;51.30;;;;;;6151136;23;20017;-79
2022/03/04 07:27:39;;;;;;;15.52;7.18;;;7.90;51.70;;;;;;6125878;23;20017;-79
2022/03/04 07:30:12;;;;;;;10.23;7.20;;;7.90;51.70;;;;;;6151834;23;20012;-79
2022/03/04 07:32:39;;;;;;;21.80;8.15;;;7.90;51.20;;;;;;6151305;23;20303;-79
2022/03/04 07:35:09;;;;;;;10.38;7.03;;;7.90;51.20;;;;;;6150927;23;20040;-78
2022/03/04 07:37:37;;;;;;;11.70;7.00;;;7.90;51.00;;;;;;6151482;23;20508;-80
2022/03/04 07:40:05;;;;;;;10.48;7.15;;;7.90;50.60;;;;;;6151490;23;20075;-80
2022/03/04 07:42:31;;;;;;;16.90;7.53;;;7.90;50.60;;;;;;6127135;23;20024;-80
2022/03/04 07:44:57;;;;;;;10.00;6.43;;;7.90;50.40;;;;;;6153840;23;20014;-78
2022/03/04 07:47:23;;;;;;;9.45;6.30;;;7.90;50.00;;;;;;6126715;23;20096;-79
2022/03/04 07:49:49;;;;;;;11.93;6.82;;;7.90;49.90;;;;;;6126462;23;20029;-79
2022/03/04 07:52:15;;;;;;;11.02;6.75;;;7.90;49.90;;;;;;6126807;23;20022;-78
2022/03/04 07:54:41;;;;;;;10.25;5.68;;;7.90;50.20;;;;;;6153200;23;20401;-78
2022/03/04 07:57:07;;;;;;;11.38;6.75;;;7.90;50.20;;;;;;6153224;23;20391;-80
2022/03/04 07:59:34;;;;;;;12.18;6.32;;;7.90;50.70;;;;;;6176786;23;20060;-78
2022/03/04 08:02:00;;;;;;;8.20;5.75;;;7.90;50.70;;;;;;6151721;23;20370;-79
2022/03/04 08:04:26;;;;;;;8.10;6.00;;;7.80;50.60;;;;;;6151265;23;20017;-79
2022/03/04 08:06:52;;;;;;;10.27;6.55;;;7.90;50.10;;;;;;6151579;23;20091;-79
2022/03/04 08:09:18;;;;;;;9.70;6.55;;;7.80;50.00;;;;;;6151732;23;20010;-78
2022/03/04 08:11:44;;;;;;;13.02;6.07;;;7.90;50.20;;;;;;6151865;23;20016;-80
2022/03/04 08:14:11;;;;;;;10.10;6.30;;;7.80;50.20;;;;;;6126898;23;20095;-79
2022/03/04 08:16:36;;;;;;;13.18;7.45;;;7.80;50.40;;;;;;6151113;23;20072;-79
2022/03/04 08:19:05;;;;;;;15.25;6.28;;;7.90;50.60;;;;;;6126375;23;20029;-80
2022/03/04 08:21:31;;;;;;;10.85;6.07;;;7.80;50.60;;;;;;6152918;23;20021;-80
2022/03/04 08:23:57;;;;;;;10.27;6.28;;;7.90;51.00;;;;;;6152007;23;20017;-79
2022/03/04 08:26:23;;;;;;;8.90;5.78;;;8.00;51.10;;;;;;6152456;23;20021;-80
2022/03/04 08:28:49;;;;;;;8.57;5.78;;;8.10;51.00;;;;;;6127659;23;20028;-79
2022/03/04 08:31:15;;;;;;;13.68;5.40;;;8.20;51.00;;;;;;6152030;23;20025;-80
2022/03/04 08:33:43;;;;;;;7.07;5.38;;;8.40;51.50;;;;;;6152551;23;20018;-81
2022/03/04 08:36:10;;;;;;;7.43;4.90;;;8.50;51.40;;;;;;6154392;23;20017;-79
2022/03/04 08:38:36;;;;;;;9.02;5.75;;;8.60;51.30;;;;;;6152191;23;20029;-80
2022/03/04 08:41:02;;;;;;;7.40;5.18;;;8.70;51.20;;;;;;6152501;23;20021;-80
2022/03/04 08:43:28;;;;;;;8.95;5.70;;;8.80;51.10;;;;;;6152134;23;20156;-81
2022/03/04 08:45:54;;;;;;;11.38;5.43;;;8.90;51.00;;;;;;6127259;23;20049;-79
2022/03/04 08:48:20;;;;;;;8.93;5.30;;;9.00;50.80;;;;;;6153291;23;20014;-79
2022/03/04 08:50:46;;;;;;;8.25;5.55;;;9.10;51.10;;;;;;6153076;23;20013;-81
2022/03/04 08:53:12;;;;;;;7.43;4.95;;;9.10;51.10;;;;;;6152316;23;20543;-80
2022/03/04 08:55:44;;;;;;;10.02;5.75;;;9.20;51.40;;;;;;6152302;23;20028;-79
2022/03/04 08:58:10;;;;;;;9.25;5.63;;;9.30;51.70;;;;;;6150613;23;20485;-80
2022/03/04 09:00:37;;;;;;;9.55;6.22;;;9.30;52.30;;;;;;6150934;23;20020;-80
2022/03/04 09:03:04;;;;;;;10.55;6.82;;;9.40;52.90;;;;;;6151687;23;20404;-79
2022/03/04 09:05:31;;;;;;;10.07;6.97;;;9.40;53.80;;;;;;6152198;23;20052;-79
2022/03/04 09:07:57;;;;;;;11.63;7.40;;;9.50;54.40;;;;;;6152446;23;20040;-78
2022/03/04 09:10:23;;;;;;;15.55;8.48;;;9.60;55.00;;;;;;6149967;23;20017;-80
2022/03/04 09:12:49;;;;;;;16.52;9.07;;;9.70;55.40;;;;;;6150662;23;20354;-79
2022/03/04 09:15:15;;;;;;;20.10;8.82;;;9.70;56.80;;;;;;6151986;23;20134;-79
2022/03/04 09:17:41;;;;;;;18.60;8.90;;;9.80;57.50;;;;;;6152905;23;20045;-79
2022/03/04 09:20:09;;;;;;;16.38;7.50;;;9.80;58.00;;;;;;6126244;23;20017;-79
2022/03/04 09:22:35;;;;;;;14.43;7.78;;;9.90;57.70;;;;;;6126286;23;20405;-80
2022/03/04 09:25:01;;;;;;;12.27;6.95;;;9.90;57.40;;;;;;6125590;23;20079;-80
2022/03/04 09:27:29;;;;;;;13.95;7.00;;;10.00;56.90;;;;;;6150444;23;20014;-79
2022/03/04 09:29:54;;;;;;;13.52;7.15;;;10.00;56.30;;;;;;6151711;23;20448;-80
2022/03/04 09:32:20;;;;;;;13.77;7.13;;;10.10;55.80;;;;;;6151512;23;20017;-80
2022/03/04 09:34:47;;;;;;;11.85;6.18;;;10.10;55.30;;;;;;6125685;23;20026;-81
2022/03/04 09:37:13;;;;;;;13.90;6.15;;;10.10;55.10;;;;;;6149975;23;20040;-80
2022/03/04 09:39:38;;;;;;;9.77;6.82;;;10.10;55.10;;;;;;6150067;23;20022;-81
2022/03/04 09:42:07;;;;;;;14.32;6.38;;;10.20;55.20;;;;;;6150806;23;20037;-79
2022/03/04 09:44:33;;;;;;;12.90;6.13;;;10.20;55.20;;;;;;6151955;23;20033;-81
2022/03/04 09:47:01;;;;;;;10.30;6.00;;;10.20;55.30;;;;;;6152303;23;20025;-81
2022/03/04 09:49:35;;;;;;;8.52;5.70;;;10.30;55.50;;;;;;6125854;23;20028;-81
2022/03/04 09:52:03;;;;;;;18.08;6.55;;;10.30;55.40;;;;;;6125811;23;20021;-87
2022/03/04 09:54:29;;;;;;;11.85;5.60;;;10.30;55.40;;;;;;6150671;23;20080;-83
2022/03/04 09:56:57;;;;;;;9.55;5.10;;;10.40;56.10;;;;;;6150929;23;20381;-82
2022/03/04 09:59:24;;;;;;;11.82;5.70;;;10.40;55.40;;;;;;6150391;23;20025;-82
2022/03/04 10:01:51;;;;;;;14.40;5.57;;;10.40;55.20;;;;;;6126336;23;20021;-81
2022/03/04 10:04:17;;;;;;;8.27;4.88;;;10.50;55.00;;;;;;6150636;23;20022;-81
2022/03/04 10:06:49;;;;;;;11.38;5.25;;;10.50;55.00;;;;;;6151180;23;20018;-82
2022/03/04 10:09:45;;;;;;;9.00;4.78;;;10.50;55.10;;;;;;6158005;23;20013;-82
2022/03/04 10:12:13;;;;;;;9.18;4.82;;;10.50;54.80;;;;;;6152855;23;20104;-81
2022/03/04 10:15:04;;;;;;;10.35;4.82;;;10.60;54.70;;;;;;6128159;23;20496;-81
2022/03/04 10:17:36;;;;;;;6.70;4.25;;;10.60;54.70;;;;;;6152774;23;20018;-80
2022/03/04 10:20:06;;;;;;;7.63;4.60;;;10.60;54.80;;;;;;6152562;23;20163;-82
2022/03/04 10:22:45;;;;;;;7.45;4.28;;;10.60;54.90;;;;;;6152795;23;20352;-81
2022/03/04 10:25:23;;;;;;;8.82;4.22;;;10.70;54.90;;;;;;6151226;23;20033;-80
2022/03/04 10:27:50;;;;;;;6.20;3.95;;;10.70;54.90;;;;;;6152619;23;20476;-80
2022/03/04 10:30:27;;;;;;;8.57;4.07;;;10.70;54.80;;;;;;6126698;23;20013;-81
2022/03/04 10:33:06;;;;;;;5.13;3.70;;;10.70;55.00;;;;;;6152681;23;20045;-81
2022/03/04 10:35:33;;;;;;;7.38;4.20;;;10.80;55.00;;;;;;6150316;23;20021;-82
2022/03/04 10:37:59;;;;;;;8.75;4.28;;;10.80;55.00;;;;;;6125688;23;20030;-80
2022/03/04 10:40:25;;;;;;;9.00;3.70;;;10.80;55.00;;;;;;6150128;23;20025;-80
2022/03/04 10:42:59;;;;;;;5.38;3.85;;;10.80;54.80;;;;;;6150328;23;20024;-81
2022/03/04 10:45:28;;;;;;;4.90;3.40;;;10.80;55.10;;;;;;6125658;23;20144;-80
2022/03/04 10:48:09;;;;;;;11.40;4.00;;;10.90;55.30;;;;;;6151301;23;20020;-80
2022/03/04 10:50:39;;;;;;;6.80;4.00;;;10.90;55.20;;;;;;6152436;23;20516;-80
2022/03/04 10:53:07;;;;;;;4.97;3.50;;;10.90;55.20;;;;;;6125760;23;20485;-80
2022/03/04 10:55:45;;;;;;;4.18;3.05;;;10.90;55.10;;;;;;6150237;23;20021;-80
2022/03/04 10:58:18;;;;;;;6.68;3.00;;;11.00;54.90;;;;;;6150745;23;20029;-82
2022/03/04 11:00:53;;;;;;;4.18;3.20;;;11.00;54.90;;;;;;6150387;23;20410;-80
2022/03/04 11:03:27;;;;;;;5.80;3.10;;;11.00;54.70;;;;;;6150464;23;20063;-80
2022/03/04 11:05:55;;;;;;;5.00;3.00;;;11.00;54.60;;;;;;6152043;23;20233;-80
2022/03/04 11:08:22;;;;;;;4.50;2.90;;;11.00;54.40;;;;;;6150379;23;20028;-80
2022/03/04 11:10:49;;;;;;;4.97;3.47;;;11.00;54.50;;;;;;6126039;23;20017;-79
2022/03/04 11:13:15;;;;;;;3.17;2.55;;;11.10;54.60;;;;;;6125862;23;20386;-82
2022/03/04 11:15:43;;;;;;;4.82;2.67;;;11.10;54.60;;;;;;6150178;23;20025;-79
2022/03/04 11:18:13;;;;;;;5.35;2.65;;;11.10;54.60;;;;;;6125944;23;20017;-82
2022/03/04 11:20:41;;;;;;;11.00;2.60;;;11.10;54.60;;;;;;6152620;23;20017;-82
2022/03/04 11:23:09;;;;;;;4.28;2.92;;;11.10;54.60;;;;;;6152918;23;20017;-81
2022/03/04 11:25:40;;;;;;;4.13;2.80;;;11.10;54.70;;;;;;6175306;23;20141;-81
2022/03/04 11:28:14;;;;;;;6.95;3.45;;;11.10;54.70;;;;;;6152139;23;20025;-81
2022/03/04 11:30:44;;;;;;;3.72;2.78;;;11.10;54.80;;;;;;6126263;23;20369;-81
2022/03/04 11:33:29;;;;;;;4.93;2.65;;;11.10;54.90;;;;;;6126707;23;20461;-80
2022/03/04 11:35:58;;;;;;;4.88;2.70;;;11.10;55.00;;;;;;6152780;23;20056;-80
2022/03/04 11:38:49;;;;;;;4.13;2.60;;;11.20;55.20;;;;;;6156204;23;20092;-79
2022/03/04 11:41:24;;;;;;;3.47;2.97;;;11.20;55.40;;;;;;6155509;23;20021;-80
2022/03/04 11:43:58;;;;;;;3.60;2.60;;;11.20;55.50;;;;;;6155490;23;20036;-81
2022/03/04 11:46:25;;;;;;;4.10;2.85;;;11.20;55.40;;;;;;6155318;23;20021;-80
2022/03/04 11:49:25;;;;;;;4.55;2.33;;;11.20;55.50;;;;;;6129993;23;20025;-80
2022/03/04 11:52:15;;;;;;;4.88;2.92;;;11.20;55.30;;;;;;6106066;23;20041;-80
2022/03/04 11:54:42;;;;;;;5.18;2.60;;;11.20;55.20;;;;;;6130168;23;20021;-81
2022/03/04 11:57:23;;;;;;;4.40;2.80;;;11.30;55.20;;;;;;6130769;23;20047;-81
2022/03/04 12:00:21;;;;;;;4.95;2.50;;;11.30;55.10;;;;;;6130099;23;20025;-82
2022/03/04 12:02:48;;;;;;;4.15;2.90;;;11.30;55.00;;;;;;6135917;23;20021;-80
2022/03/04 12:05:19;;;;;;;4.78;2.53;;;11.30;55.00;;;;;;6155162;23;20048;-80
2022/03/04 12:07:47;;;;;;;5.82;2.70;;;11.30;55.00;;;;;;6180883;23;20104;-80
2022/03/04 12:10:15;;;;;;;4.05;2.58;;;11.30;54.80;;;;;;6129670;23;20017;-79
2022/03/04 12:13:05;;;;;;;3.35;2.50;;;11.30;54.80;;;;;;6154527;23;20024;-80
2022/03/04 12:15:42;;;;;;;3.60;2.33;;;11.30;54.60;;;;;;6180538;23;20496;-80
2022/03/04 12:18:31;;;;;;;3.25;2.47;;;11.40;54.50;;;;;;6154924;23;20020;-79
2022/03/04 12:21:01;;;;;;;3.67;2.40;;;11.40;54.50;;;;;;6155301;23;20024;-79
2022/03/04 12:23:30;;;;;;;3.03;2.45;;;11.40;54.40;;;;;;6156294;23;20109;-80
2022/03/04 12:25:59;;;;;;;3.60;2.38;;;11.40;54.20;;;;;;6131408;23;20101;-79
2022/03/04 12:28:40;;;;;;;2.55;2.22;;;11.40;54.20;;;;;;6183049;23;20028;-80
2022/03/04 12:31:12;;;;;;;3.63;2.42;;;11.40;54.20;;;;;;6182943;23;20021;-79
2022/03/04 12:33:42;;;;;;;4.40;2.67;;;11.40;54.20;;;;;;6182409;23;20551;-79
2022/03/04 12:36:12;;;;;;;4.30;2.20;;;11.40;54.00;;;;;;6183032;23;20020;-78
2022/03/04 12:38:39;;;;;;;6.30;2.53;;;11.40;54.00;;;;;;6155796;23;20100;-80
2022/03/04 12:41:07;;;;;;;3.65;2.60;;;11.40;54.10;;;;;;6182105;23;20365;-79
2022/03/04 12:43:38;;;;;;;4.03;2.55;;;11.40;54.30;;;;;;6131315;23;20013;-79
2022/03/04 12:46:05;;;;;;;2.70;2.08;;;11.40;54.30;;;;;;6182499;23;20476;-78
2022/03/04 12:48:31;;;;;;;3.65;2.20;;;11.40;54.90;;;;;;6181716;23;20028;-77
2022/03/04 12:50:57;;;;;;;4.35;2.45;;;11.40;55.60;;;;;;6182501;23;20095;-78